CFU weather

Ioannis Kapodistrias International Airport
Kerkyra Island, Corfu, Greece

Public forecast

Using degrees Celsius for public forecast. Weather courtesy of forecast.io.

Current aviation weather report (METAR) for Ioannis Kapodistrias International Airport

Retrieved 2019/10/18 10:20 UTC (0 seconds ago):

LGKR 181020Z 15006KT 9999 SCT018 25/18 Q1018 NOSIG

Aviation forecast (TAF) for Ioannis Kapodistrias International Airport

Retrieved 2019/10/18 06:12 UTC (4 hours ago):

TAF LGKR 180500Z 1806/1906 VRB05KT 9999 FEW015 PROB30 1820/1906 4000 BR SCT006